createdAt,value
2019-02-05T00:01:37.682Z,99580.56
2019-02-05T00:04:08.069Z,99580.56
2019-02-05T00:06:39.577Z,99568.05
2019-02-05T00:09:10.287Z,99555.34
2019-02-05T00:11:40.804Z,99555.34
2019-02-05T00:14:11.088Z,99555.27
2019-02-05T00:16:41.691Z,99552.13
2019-02-05T00:19:10.981Z,99552.13
2019-02-05T00:21:42.106Z,99563.54
2019-02-05T00:24:13.048Z,99574.55
2019-02-05T00:26:42.840Z,99574.55
2019-02-05T00:29:13.823Z,99573.13
2019-02-05T00:31:42.892Z,99574.88
2019-02-05T00:34:13.613Z,99586.69
2019-02-05T00:36:41.828Z,99586.69
2019-02-05T00:39:12.845Z,99588.08
2019-02-05T00:41:41.786Z,99592.73
2019-02-05T00:45:40.735Z,99590.85
2019-02-05T00:48:09.213Z,99599.23
2019-02-05T00:50:40.148Z,99599.23
2019-02-05T00:53:10.088Z,99596.15
2019-02-05T00:55:39.345Z,99597.92
2019-02-05T00:58:08.723Z,99573.27
2019-02-05T01:00:37.884Z,99573.27
2019-02-05T01:03:07.063Z,99583.88
2019-02-05T01:05:37.031Z,99583.88
2019-02-05T01:08:07.743Z,99561.72
2019-02-05T01:10:39.747Z,99561.72
2019-02-05T01:13:08.944Z,99572.80
2019-02-05T01:15:37.721Z,99550.99
2019-02-05T01:18:06.707Z,99550.99
2019-02-05T01:20:37.177Z,99567.33
2019-02-05T01:23:06.982Z,99550.72
2019-02-05T01:25:37.141Z,99550.72
2019-02-05T01:28:06.858Z,99546.20
2019-02-05T01:30:36.222Z,99546.20
2019-02-05T01:33:05.905Z,99570.50
2019-02-05T01:35:36.882Z,99561.95
2019-02-05T01:38:07.114Z,99562.09
2019-02-05T01:40:40.805Z,99556.39
2019-02-05T01:43:09.820Z,99556.39
2019-02-05T01:45:38.836Z,99553.97
2019-02-05T01:48:09.798Z,99561.23
2019-02-05T01:50:39.804Z,99543.20
2019-02-05T01:53:12.818Z,99530.59
2019-02-05T01:55:42.801Z,99530.59
2019-02-05T01:58:14.659Z,99522.77
2019-02-05T02:00:45.789Z,99522.77
2019-02-05T02:03:15.928Z,99522.36
2019-02-05T02:05:46.858Z,99507.03
2019-02-05T02:08:16.807Z,99524.84
2019-02-05T02:13:13.717Z,99515.23
2019-02-05T02:15:43.732Z,99526.65
2019-02-05T02:18:13.319Z,99528.60
2019-02-05T02:20:42.937Z,99528.60
2019-02-05T02:23:13.908Z,99523.13
2019-02-05T02:25:46.864Z,99509.59
2019-02-05T02:28:17.848Z,99514.73
2019-02-05T02:30:47.882Z,99517.45
2019-02-05T02:33:19.809Z,99515.14
2019-02-05T02:35:51.838Z,99515.14
2019-02-05T02:38:21.847Z,99511.55
2019-02-05T02:40:52.615Z,99512.23
2019-02-05T02:43:26.830Z,99512.23
2019-02-05T02:45:56.885Z,99499.63
2019-02-05T02:48:27.895Z,99497.09
2019-02-05T02:50:59.147Z,99497.09
2019-02-05T02:53:29.794Z,99483.46
2019-02-05T02:55:59.820Z,99482.44
2019-02-05T02:58:30.676Z,99481.45
2019-02-05T03:01:01.550Z,99476.08
2019-02-05T03:03:32.071Z,99491.14
2019-02-05T03:06:03.106Z,99484.87
2019-02-05T03:08:34.813Z,99470.75
2019-02-05T03:11:04.744Z,99470.75
2019-02-05T03:13:37.871Z,99483.16
2019-02-05T03:16:08.082Z,99480.97
2019-02-05T03:18:39.960Z,99484.41
2019-02-05T03:21:11.815Z,99494.01
2019-02-05T03:23:41.874Z,99477.09
2019-02-05T03:26:11.939Z,99476.04
2019-02-05T03:28:41.846Z,99476.04
2019-02-05T03:31:11.810Z,99499.26
2019-02-05T03:33:43.865Z,99496.48
2019-02-05T03:36:13.846Z,99500.28
2019-02-05T03:38:43.796Z,99500.28
2019-02-05T03:41:15.010Z,99490.10
2019-02-05T03:44:17.830Z,99497.73
2019-02-05T03:46:47.501Z,99497.73
2019-02-05T03:49:18.595Z,99510.98
2019-02-05T03:52:17.847Z,99510.98
2019-02-05T03:56:05.864Z,99504.95
2019-02-05T03:59:10.068Z,99500.44
2019-02-05T04:02:19.032Z,99500.44
2019-02-05T04:05:33.068Z,99507.17
2019-02-05T04:08:46.940Z,99507.17
2019-02-05T04:12:01.701Z,99501.34
2019-02-05T04:15:37.318Z,99522.37
2019-02-05T04:18:32.941Z,99508.98
2019-02-05T04:22:11.070Z,99508.98
2019-02-05T04:25:19.065Z,99519.44
2019-02-05T04:28:32.361Z,99519.31
2019-02-05T04:32:00.962Z,99519.31
2019-02-05T04:35:07.879Z,99534.04
2019-02-05T04:38:42.870Z,99532.44
2019-02-05T04:42:26.002Z,99516.30
2019-02-05T04:45:48.231Z,99516.30
2019-02-05T04:49:01.863Z,99538.15
2019-02-05T04:52:50.277Z,99535.13
2019-02-05T04:56:07.158Z,99535.13
2019-02-05T04:59:18.876Z,99546.45
2019-02-05T05:02:29.852Z,99544.50
2019-02-05T05:06:02.672Z,99537.84
2019-02-05T05:09:19.904Z,99532.62
2019-02-05T05:11:51.727Z,99553.73
2019-02-05T05:15:17.643Z,99547.34
2019-02-05T05:17:47.826Z,99547.34
2019-02-05T05:20:19.408Z,99552.20
2019-02-05T05:22:49.327Z,99537.39
2019-02-05T05:25:21.109Z,99535.33
2019-02-05T05:27:50.388Z,99553.98
2019-02-05T05:30:20.838Z,99561.64
2019-02-05T05:32:51.940Z,99551.81
2019-02-05T05:35:22.829Z,99556.44
2019-02-05T05:37:53.829Z,99562.20
2019-02-05T05:40:24.809Z,99569.52
2019-02-05T05:42:54.758Z,99565.45
2019-02-05T05:45:23.749Z,99567.36
2019-02-05T05:47:53.836Z,99567.36
2019-02-05T05:50:23.759Z,99558.19
2019-02-05T05:52:55.355Z,99558.19
2019-02-05T05:55:23.865Z,99569.38
2019-02-05T05:57:53.986Z,99562.20
2019-02-05T06:00:22.819Z,99560.98
2019-02-05T06:02:52.338Z,99574.23
2019-02-05T06:05:25.026Z,99571.08
2019-02-05T06:07:56.672Z,99569.42
2019-02-05T06:10:26.716Z,99577.55
2019-02-05T06:12:56.927Z,99579.34
2019-02-05T06:18:10.800Z,99589.92
2019-02-05T06:20:41.781Z,99585.34
2019-02-05T06:23:12.349Z,99596.30
2019-02-05T06:26:12.614Z,99594.01
2019-02-05T06:28:42.740Z,99590.36
2019-02-05T06:31:12.096Z,99599.64
2019-02-05T06:33:44.153Z,99599.64
2019-02-05T06:36:15.882Z,99521.16
2019-02-05T06:38:45.295Z,99597.14
2019-02-05T06:42:19.622Z,99614.44
2019-02-05T06:44:52.047Z,99621.73
2019-02-05T06:47:20.798Z,99621.73
2019-02-05T06:49:52.933Z,99621.25
2019-02-05T06:52:21.919Z,99626.03
2019-02-05T06:54:52.275Z,99632.15
2019-02-05T06:57:22.035Z,99631.22
2019-02-05T06:59:53.898Z,99631.22
2019-02-05T07:02:23.721Z,99631.41
2019-02-05T07:04:55.341Z,99631.41
2019-02-05T07:07:27.414Z,99636.27
2019-02-05T07:09:58.677Z,99636.27
2019-02-05T07:12:28.731Z,99638.47
2019-02-05T07:14:58.598Z,99629.56
2019-02-05T07:17:28.709Z,99629.56
2019-02-05T07:19:59.951Z,99636.14
2019-02-05T07:22:28.705Z,99655.55
2019-02-05T07:24:59.871Z,99647.66
2019-02-05T07:27:31.718Z,99645.59
2019-02-05T07:30:01.383Z,99644.13
2019-02-05T07:32:30.932Z,99651.83
2019-02-05T07:35:00.394Z,99651.83
2019-02-05T07:37:30.660Z,99660.08
2019-02-05T07:40:00.374Z,99657.53
2019-02-05T07:42:30.269Z,99662.22
2019-02-05T07:45:00.599Z,99658.22
2019-02-05T07:47:31.552Z,99659.31
2019-02-05T07:50:00.340Z,99659.47
2019-02-05T07:52:30.024Z,99661.67
2019-02-05T07:54:58.954Z,99665.27
2019-02-05T07:57:30.185Z,99647.55
2019-02-05T07:59:59.746Z,99647.55
2019-02-05T08:02:30.113Z,99661.79
2019-02-05T08:05:01.634Z,99659.01
2019-02-05T08:07:32.076Z,99659.01
2019-02-05T08:10:01.730Z,99659.52
2019-02-05T08:12:31.086Z,99671.70
2019-02-05T08:16:15.871Z,99681.34
2019-02-05T08:18:45.604Z,99658.30
2019-02-05T08:21:15.908Z,99658.30
2019-02-05T08:25:20.277Z,99653.02
2019-02-05T08:27:48.879Z,99653.02
2019-02-05T08:32:00.957Z,99647.14
2019-02-05T08:34:29.786Z,99658.66
2019-02-05T08:36:59.703Z,99658.66
2019-02-05T08:39:28.334Z,99657.33
2019-02-05T08:41:58.706Z,99653.52
2019-02-05T08:44:26.857Z,99657.52
2019-02-05T08:46:57.359Z,99647.72
2019-02-05T08:49:26.869Z,99647.72
2019-02-05T08:51:55.409Z,99669.12
2019-02-05T08:54:26.094Z,99682.18
2019-02-05T08:56:56.812Z,99695.47
2019-02-05T08:59:25.872Z,99690.98
2019-02-05T09:01:55.823Z,99693.38
2019-02-05T09:04:24.823Z,99693.38
2019-02-05T09:06:55.364Z,99696.75
2019-02-05T09:09:24.857Z,99683.38
2019-02-05T09:11:55.060Z,99675.52
2019-02-05T09:14:23.800Z,99675.52
2019-02-05T09:16:53.930Z,99694.84
2019-02-05T09:19:22.791Z,99695.80
2019-02-05T09:21:50.776Z,99694.67
2019-02-05T09:24:19.355Z,99697.48
2019-02-05T09:26:48.642Z,99698.41
2019-02-05T09:29:17.769Z,99699.05
2019-02-05T09:31:46.732Z,99699.05
2019-02-05T09:34:16.290Z,99699.13
2019-02-05T09:36:45.773Z,99699.44
2019-02-05T09:39:15.924Z,99699.98
2019-02-05T09:41:44.354Z,99696.29
2019-02-05T09:44:15.946Z,99696.29
2019-02-05T09:46:45.969Z,99701.31
2019-02-05T09:49:14.058Z,99704.47
2019-02-05T09:51:43.328Z,99710.66
2019-02-05T09:54:13.968Z,99710.66
2019-02-05T09:56:43.106Z,99702.55
2019-02-05T09:59:12.431Z,99707.41
2019-02-05T10:01:41.382Z,99707.41
2019-02-05T10:04:10.766Z,99716.48
2019-02-05T10:06:38.748Z,99716.34
2019-02-05T10:09:07.776Z,99716.34
2019-02-05T10:11:36.713Z,99717.98
2019-02-05T10:14:07.010Z,99725.58
2019-02-05T10:16:36.911Z,99725.67
2019-02-05T10:19:05.047Z,99700.16
2019-02-05T10:21:34.075Z,99712.34
2019-02-05T10:24:02.102Z,99716.50
2019-02-05T10:38:14.215Z,99699.94
2019-02-05T10:40:42.797Z,99692.48
2019-02-05T10:44:15.425Z,99685.41
2019-02-05T10:46:44.783Z,99684.47
2019-02-05T10:49:14.951Z,99688.09
2019-02-05T10:51:42.752Z,99687.67
2019-02-05T11:09:11.848Z,99689.88
2019-02-05T11:11:40.773Z,99673.09
2019-02-05T11:14:10.087Z,99689.33
2019-02-05T11:16:38.779Z,99689.33
2019-02-05T11:19:08.618Z,99687.72
2019-02-05T11:21:38.761Z,99692.78
2019-02-05T11:24:07.867Z,99692.78
2019-02-05T11:26:36.871Z,99694.22
2019-02-05T11:29:05.682Z,99694.22
2019-02-05T11:31:35.097Z,99690.27
2019-02-05T11:34:07.081Z,99671.67
2019-02-05T11:36:35.382Z,99668.97
2019-02-05T11:39:05.342Z,99668.97
2019-02-05T11:41:34.686Z,99689.48
2019-02-05T11:44:02.031Z,99694.34
2019-02-05T11:46:32.223Z,99690.58
2019-02-05T11:49:00.857Z,99686.54
2019-02-05T11:51:28.687Z,99668.75
2019-02-05T11:53:57.341Z,99668.75
2019-02-05T11:56:29.307Z,99667.36
2019-02-05T11:58:57.776Z,99667.36
2019-02-05T12:01:39.132Z,99670.27
2019-02-05T12:04:06.143Z,99662.50
2019-02-05T12:06:35.877Z,99662.50
2019-02-05T12:09:20.811Z,99665.45
2019-02-05T12:11:53.757Z,99664.42
2019-02-05T12:14:23.760Z,99664.42
2019-02-05T12:16:52.809Z,99650.77
2019-02-05T12:19:21.796Z,99650.77
2019-02-05T12:21:52.792Z,99653.77
2019-02-05T12:24:22.854Z,99645.05
2019-02-05T12:26:52.838Z,99650.37
2019-02-05T12:29:21.778Z,99648.18
2019-02-05T12:31:51.884Z,99639.81
2019-02-05T12:34:20.751Z,99634.47
2019-02-05T12:36:49.710Z,99650.42
2019-02-05T12:39:20.823Z,99648.23
2019-02-05T12:41:50.727Z,99648.23
2019-02-05T12:44:19.800Z,99645.08
2019-02-05T12:46:50.535Z,99644.89
2019-02-05T12:49:20.625Z,99644.89
2019-02-05T12:51:50.747Z,99646.14
2019-02-05T12:54:20.615Z,99644.87
2019-02-05T12:56:48.792Z,99644.87
2019-02-05T12:59:18.773Z,99643.02
2019-02-05T13:01:48.844Z,99632.79
2019-02-05T13:04:17.732Z,99636.36
2019-02-05T13:06:47.746Z,99622.59
2019-02-05T13:11:59.837Z,99626.55
2019-02-05T13:14:29.731Z,99627.84
2019-02-05T13:17:00.787Z,99627.84
2019-02-05T13:19:31.720Z,99627.05
2019-02-05T13:22:02.795Z,99627.05
2019-02-05T13:24:32.027Z,99624.43
2019-02-05T13:27:01.321Z,99608.84
2019-02-05T13:29:32.061Z,99608.84
2019-02-05T13:32:02.750Z,99621.30
2019-02-05T13:34:30.721Z,99611.59
2019-02-05T13:36:58.911Z,99612.19
2019-02-05T13:39:27.364Z,99616.22
2019-02-05T13:41:56.865Z,99616.22
2019-02-05T13:44:26.493Z,99603.25
2019-02-05T13:46:56.298Z,99603.25
2019-02-05T13:49:25.760Z,99615.70
2019-02-05T13:51:55.982Z,99614.05
2019-02-05T13:54:26.842Z,99597.64
2019-02-05T13:56:56.909Z,99597.64
2019-02-05T13:59:25.382Z,99615.87
2019-02-05T14:01:55.784Z,99615.87
2019-02-05T14:04:25.853Z,99604.05
2019-02-05T14:06:55.791Z,99614.27
2019-02-05T14:09:25.787Z,99600.28
2019-02-05T14:11:55.800Z,99600.28
2019-02-05T14:14:24.699Z,99616.17
2019-02-05T14:16:55.377Z,99616.49
2019-02-05T14:19:24.293Z,99616.49
2019-02-05T14:21:55.716Z,99614.34
2019-02-05T14:24:23.778Z,99600.09
2019-02-05T14:26:53.975Z,99600.09
2019-02-05T14:29:23.835Z,99599.55
2019-02-05T14:31:53.944Z,99621.64
2019-02-05T14:34:23.705Z,99601.17
2019-02-05T14:36:53.372Z,99603.09
2019-02-05T14:39:22.863Z,99603.09
2019-02-05T14:41:53.770Z,99618.97
2019-02-05T14:44:22.837Z,99618.97
2019-02-05T14:46:52.695Z,99616.57
2019-02-05T14:49:23.962Z,99582.05
2019-02-05T14:51:57.711Z,99600.03
2019-02-05T14:54:27.818Z,99600.03
2019-02-05T14:56:57.370Z,99605.00
2019-02-05T14:59:27.824Z,99605.00
2019-02-05T15:01:57.841Z,99611.37
2019-02-05T15:04:28.929Z,99612.16
2019-02-05T15:09:16.995Z,99611.08
2019-02-05T15:11:45.371Z,99612.66
2019-02-05T15:14:15.422Z,99612.66
2019-02-05T15:16:43.877Z,99614.48
2019-02-05T15:19:13.792Z,99614.86
2019-02-05T15:21:42.370Z,99614.86
2019-02-05T15:24:12.731Z,99623.72
2019-02-05T15:26:42.301Z,99620.98
2019-02-05T15:29:13.589Z,99617.74
2019-02-05T15:31:53.797Z,99582.61
2019-02-05T15:34:21.854Z,99618.53
2019-02-05T15:36:50.780Z,99607.33
2019-02-05T15:39:21.401Z,99607.33
2019-02-05T15:41:49.666Z,99614.53
2019-02-05T15:44:19.646Z,99617.96
2019-02-05T15:46:48.771Z,99608.05
2019-02-05T15:49:19.859Z,99608.05
2019-02-05T15:51:49.697Z,99606.87
2019-02-05T15:54:20.288Z,99615.20
2019-02-05T15:56:50.309Z,99605.07
2019-02-05T15:59:19.855Z,99605.07
2019-02-05T16:01:47.748Z,99602.56
2019-02-05T16:04:18.366Z,99602.56
2019-02-05T16:06:49.480Z,99602.80
2019-02-05T16:09:20.912Z,99595.71
2019-02-05T16:11:50.822Z,99595.71
2019-02-05T16:14:21.546Z,99605.69
2019-02-05T16:16:51.631Z,99611.63
2019-02-05T16:19:22.327Z,99606.48
2019-02-05T16:21:50.723Z,99611.23
2019-02-05T16:24:20.962Z,99610.39
2019-02-05T16:26:50.920Z,99620.25
2019-02-05T16:29:21.744Z,99614.27
2019-02-05T16:31:50.981Z,99614.27
2019-02-05T16:34:19.899Z,99603.44
2019-02-05T16:36:50.069Z,99619.95
2019-02-05T16:39:21.742Z,99616.91
2019-02-05T16:41:57.729Z,99616.91
2019-02-05T16:44:28.431Z,99623.67
2019-02-05T16:46:56.721Z,99630.38
2019-02-05T16:49:25.445Z,99636.11
2019-02-05T16:51:54.826Z,99637.27
2019-02-05T16:54:23.675Z,99637.27
2019-02-05T16:56:52.775Z,99628.64
2019-02-05T16:59:23.793Z,99628.64
2019-02-05T17:01:53.777Z,99638.13
2019-02-05T17:04:24.849Z,99635.67
2019-02-05T17:06:54.897Z,99623.66
2019-02-05T17:09:25.776Z,99634.50
2019-02-05T17:11:56.832Z,99625.81
2019-02-05T17:14:24.833Z,99625.81
2019-02-05T17:16:53.389Z,99637.20
2019-02-05T17:19:22.107Z,99637.20
2019-02-05T17:21:52.811Z,99637.66
2019-02-05T17:24:21.874Z,99637.66
2019-02-05T17:26:52.856Z,99637.66
2019-02-05T17:29:21.762Z,99637.74
2019-02-05T17:31:51.851Z,99637.74
2019-02-05T17:34:19.891Z,99643.08
2019-02-05T17:36:47.999Z,99644.69
2019-02-05T17:39:17.802Z,99642.78
2019-02-05T17:41:46.795Z,99644.17
2019-02-05T17:44:16.909Z,99644.17
2019-02-05T17:46:46.731Z,99638.78
2019-02-05T17:49:16.942Z,99638.78
2019-02-05T17:51:46.060Z,99654.62
2019-02-05T17:54:17.435Z,99654.62
2019-02-05T17:56:47.597Z,99653.29
2019-02-05T17:59:17.620Z,99634.83
2019-02-05T18:01:47.321Z,99659.96
2019-02-05T18:04:16.978Z,99665.52
2019-02-05T18:06:45.884Z,99667.00
2019-02-05T18:09:14.953Z,99652.84
2019-02-05T18:11:43.660Z,99652.84
2019-02-05T18:14:12.533Z,99662.32
2019-02-05T18:16:41.975Z,99669.19
2019-02-05T18:19:12.760Z,99668.52
2019-02-05T18:21:42.015Z,99669.19
2019-02-05T18:24:12.041Z,99669.19
2019-02-05T18:28:34.921Z,99674.53
2019-02-05T18:31:04.627Z,99682.64
2019-02-05T18:33:35.954Z,99678.80
2019-02-05T18:36:06.849Z,99664.81
2019-02-05T18:38:39.255Z,99683.34
2019-02-05T18:41:11.684Z,99683.34
2019-02-05T18:43:40.732Z,99685.20
2019-02-05T18:46:12.934Z,99685.20
2019-02-05T18:48:42.735Z,99682.02
2019-02-05T18:51:16.674Z,99682.02
2019-02-05T18:53:50.033Z,99669.36
2019-02-05T18:56:20.097Z,99669.36
2019-02-05T18:58:49.660Z,99685.48
2019-02-05T19:01:20.757Z,99685.81
2019-02-05T19:03:48.800Z,99685.81
2019-02-05T19:08:10.793Z,99675.27
2019-02-05T19:10:41.366Z,99681.09
2019-02-05T19:14:23.448Z,99675.80
2019-02-05T19:16:53.795Z,99684.45
2019-02-05T19:19:28.006Z,99680.14
2019-02-05T19:22:02.638Z,99680.14
2019-02-05T19:25:00.812Z,99683.66
2019-02-05T19:27:34.467Z,99683.66
2019-02-05T19:30:06.399Z,99687.26
2019-02-05T19:32:36.941Z,99685.61
2019-02-05T19:35:07.779Z,99684.83
2019-02-05T19:39:30.557Z,99689.41
2019-02-05T19:44:04.021Z,99684.18
2019-02-05T19:46:51.013Z,99666.66
2019-02-05T19:49:31.686Z,99681.14
2019-02-05T19:52:02.736Z,99677.55
2019-02-05T19:54:32.594Z,99677.89
2019-02-05T19:57:02.112Z,99677.89
2019-02-05T19:59:33.634Z,99676.92
2019-02-05T20:02:03.644Z,99668.38
2019-02-05T20:04:36.837Z,99666.80
2019-02-05T20:07:05.761Z,99668.55
2019-02-05T20:09:36.580Z,99672.55
2019-02-05T20:12:05.633Z,99672.55
2019-02-05T20:16:24.688Z,99670.46
2019-02-05T20:18:56.577Z,99669.61
2019-02-05T20:21:31.863Z,99669.61
2019-02-05T20:24:16.618Z,99662.52
2019-02-05T20:26:47.662Z,99669.12
2019-02-05T20:29:16.987Z,99648.67
2019-02-05T20:31:49.419Z,99661.30
2019-02-05T20:34:18.730Z,99667.24
2019-02-05T20:36:51.526Z,99672.20
2019-02-05T20:39:20.384Z,99672.20
2019-02-05T20:41:52.415Z,99672.13
2019-02-05T20:44:20.964Z,99656.38
2019-02-05T20:46:52.798Z,99673.67
2019-02-05T20:49:25.769Z,99673.67
2019-02-05T20:51:55.575Z,99675.52
2019-02-05T20:54:24.827Z,99675.52
2019-02-05T20:56:53.699Z,99676.17
2019-02-05T20:59:21.996Z,99676.17
2019-02-05T21:01:51.675Z,99680.96
2019-02-05T21:04:20.952Z,99680.96
2019-02-05T21:06:52.349Z,99685.07
2019-02-05T21:09:22.753Z,99686.64
2019-02-05T21:11:52.760Z,99686.64
2019-02-05T21:14:22.770Z,99681.27
2019-02-05T21:16:52.230Z,99681.27
2019-02-05T21:19:22.594Z,99684.22
2019-02-05T21:21:53.340Z,99686.81
2019-02-05T21:24:21.639Z,99687.70
2019-02-05T21:26:51.670Z,99695.73
2019-02-05T21:29:20.035Z,99695.36
2019-02-05T21:31:49.390Z,99703.27
2019-02-05T21:34:18.426Z,99684.69
2019-02-05T21:39:30.315Z,99696.59
2019-02-05T21:41:59.970Z,99696.59
2019-02-05T21:44:30.814Z,99699.73
2019-02-05T21:46:59.958Z,99703.06
2019-02-05T21:49:30.369Z,99703.06
2019-02-05T21:53:41.175Z,99700.52
2019-02-05T21:56:12.095Z,99700.52
2019-02-05T21:58:40.708Z,99699.53
2019-02-05T22:01:10.675Z,99690.63
2019-02-05T22:03:38.655Z,99690.63
2019-02-05T22:06:09.939Z,99694.94
2019-02-05T22:08:39.930Z,99688.07
2019-02-05T22:11:08.719Z,99688.07
2019-02-05T22:13:40.228Z,99687.56
2019-02-05T22:16:11.429Z,99687.56
2019-02-05T22:18:41.912Z,99682.97
2019-02-05T22:21:12.136Z,99683.52
2019-02-05T22:23:43.639Z,99683.52
2019-02-05T22:26:13.561Z,99670.04
2019-02-05T22:30:58.170Z,99672.55
2019-02-05T22:33:29.022Z,99666.89
2019-02-05T22:36:00.100Z,99666.89
2019-02-05T22:38:27.258Z,99676.88
2019-02-05T22:40:55.998Z,99661.51
2019-02-05T22:43:26.016Z,99661.51
2019-02-05T22:46:30.809Z,99666.95
2019-02-05T22:49:06.777Z,99665.89
2019-02-05T22:51:37.172Z,99665.89
2019-02-05T22:54:06.008Z,99656.70
2019-02-05T22:56:34.971Z,99647.61
2019-02-05T22:59:04.108Z,99647.61
2019-02-05T23:01:54.750Z,99652.05
2019-02-05T23:05:27.621Z,99651.13
2019-02-05T23:07:57.267Z,99642.44
2019-02-05T23:11:03.456Z,99652.58
2019-02-05T23:13:31.633Z,99645.98
2019-02-05T23:16:00.981Z,99645.98
2019-02-05T23:18:30.797Z,99638.73
2019-02-05T23:20:59.704Z,99630.19
2019-02-05T23:23:28.922Z,99630.19
2019-02-05T23:25:58.037Z,99620.16
2019-02-05T23:28:27.709Z,99620.16
2019-02-05T23:30:57.739Z,99609.34
2019-02-05T23:36:05.272Z,99615.91
2019-02-05T23:38:34.668Z,99600.30
2019-02-05T23:41:04.552Z,99600.30
2019-02-05T23:43:34.704Z,99618.67
2019-02-05T23:46:04.048Z,99614.20
2019-02-05T23:48:34.666Z,99614.20
2019-02-05T23:51:04.000Z,99622.73
2019-02-05T23:53:33.330Z,99605.73
2019-02-05T23:56:05.394Z,99621.15
2019-02-05T23:58:35.717Z,99621.15
